createdAt,value
2018-09-01T00:00:35.582Z,21.53
2018-09-01T00:01:14.312Z,23.73
2018-09-01T00:01:53.268Z,28.93
2018-09-01T00:02:32.241Z,47.67
2018-09-01T00:03:10.950Z,31.03
2018-09-01T00:03:49.665Z,19.50
2018-09-01T00:04:30.209Z,32.43
2018-09-01T00:05:08.790Z,21.33
2018-09-01T00:05:47.408Z,22.37
2018-09-01T00:06:27.575Z,31.73
2018-09-01T00:07:06.185Z,22.50
2018-09-01T00:07:45.814Z,21.23
2018-09-01T00:08:25.485Z,22.67
2018-09-01T00:09:04.098Z,23.17
2018-09-01T00:09:45.451Z,18.30
2018-09-01T00:10:24.629Z,32.03
2018-09-01T00:11:05.008Z,21.40
2018-09-01T00:11:43.741Z,32.50
2018-09-01T00:12:22.561Z,30.27
2018-09-01T00:13:01.173Z,20.63
2018-09-01T00:13:39.834Z,20.77
2018-09-01T00:14:18.554Z,29.30
2018-09-01T00:14:57.646Z,36.83
2018-09-01T00:15:36.570Z,23.53
2018-09-01T00:16:15.259Z,21.40
2018-09-01T00:16:53.900Z,35.37
2018-09-01T00:17:33.624Z,30.47
2018-09-01T00:18:14.265Z,29.17
2018-09-01T00:18:52.987Z,28.83
2018-09-01T00:19:31.839Z,28.70
2018-09-01T00:20:10.698Z,22.97
2018-09-01T00:20:50.138Z,39.40
2018-09-01T00:21:28.956Z,30.10
2018-09-01T00:22:07.562Z,23.40
2018-09-01T00:22:46.081Z,30.20
2018-09-01T00:23:25.235Z,23.20
2018-09-01T00:24:07.652Z,24.50
2018-09-01T00:24:46.170Z,18.40
2018-09-01T00:25:24.712Z,20.60
2018-09-01T00:26:03.287Z,26.63
2018-09-01T00:26:43.252Z,20.90
2018-09-01T00:27:21.825Z,23.97
2018-09-01T00:28:00.668Z,21.10
2018-09-01T00:28:39.195Z,37.53
2018-09-01T00:29:17.724Z,28.50
2018-09-01T00:29:56.029Z,27.57
2018-09-01T00:30:34.568Z,24.13
2018-09-01T00:31:13.076Z,25.33
2018-09-01T00:31:51.591Z,29.13
2018-09-01T00:32:30.024Z,21.73
2018-09-01T00:33:08.738Z,24.43
2018-09-01T00:33:47.219Z,26.77
2018-09-01T00:34:25.633Z,25.93
2018-09-01T00:35:03.965Z,41.50
2018-09-01T00:35:42.508Z,28.90
2018-09-01T00:36:20.812Z,29.17
2018-09-01T00:36:58.840Z,32.30
2018-09-01T00:37:41.061Z,33.00
2018-09-01T00:38:23.132Z,27.60
2018-09-01T00:39:04.267Z,32.90
2018-09-01T00:39:46.074Z,22.73
2018-09-01T00:40:28.041Z,29.43
2018-09-01T00:41:05.960Z,29.20
2018-09-01T00:41:43.898Z,30.13
2018-09-01T00:42:21.790Z,29.13
2018-09-01T00:43:02.625Z,25.10
2018-09-01T00:43:40.717Z,28.27
2018-09-01T00:44:18.643Z,26.00
2018-09-01T00:44:56.721Z,34.40
2018-09-01T00:45:34.702Z,37.63
2018-09-01T00:46:12.697Z,32.93
2018-09-01T00:46:50.656Z,36.20
2018-09-01T00:47:28.682Z,25.13
2018-09-01T00:48:06.800Z,26.30
2018-09-01T00:48:44.789Z,25.73
2018-09-01T00:49:22.676Z,29.37
2018-09-01T00:50:01.018Z,23.30
2018-09-01T00:50:38.976Z,24.10
2018-09-01T00:51:18.038Z,32.13
2018-09-01T00:51:56.089Z,25.00
2018-09-01T00:52:34.018Z,28.63
2018-09-01T00:53:12.107Z,24.03
2018-09-01T00:53:50.484Z,19.97
2018-09-01T00:54:34.355Z,23.97
2018-09-01T00:55:15.750Z,23.13
2018-09-01T00:55:53.650Z,28.63
2018-09-01T00:56:31.704Z,27.13
2018-09-01T00:57:09.731Z,23.50
2018-09-01T00:57:47.780Z,24.70
2018-09-01T00:58:25.821Z,22.80
2018-09-01T00:59:03.858Z,31.73
2018-09-01T00:59:41.864Z,35.37
2018-09-01T01:00:19.807Z,21.20
2018-09-01T01:00:57.809Z,22.03
2018-09-01T01:01:35.886Z,25.57
2018-09-01T01:02:13.984Z,24.97
2018-09-01T01:02:52.816Z,18.90
2018-09-01T01:03:30.853Z,36.20
2018-09-01T01:04:08.900Z,26.17
2018-09-01T01:04:46.851Z,22.67
2018-09-01T01:05:25.001Z,23.93
2018-09-01T01:06:03.111Z,17.17
2018-09-01T01:06:41.120Z,17.37
2018-09-01T01:07:19.308Z,20.70
2018-09-01T01:07:57.309Z,15.80
2018-09-01T01:08:35.323Z,23.33
2018-09-01T01:09:13.318Z,19.20
2018-09-01T01:09:51.283Z,27.63
2018-09-01T01:10:29.281Z,19.40
2018-09-01T01:11:07.525Z,19.73
2018-09-01T01:11:45.621Z,15.90
2018-09-01T01:12:23.694Z,20.03
2018-09-01T01:13:01.633Z,20.33
2018-09-01T01:13:39.686Z,28.73
2018-09-01T01:14:17.632Z,21.60
2018-09-01T01:14:55.540Z,21.60
2018-09-01T01:15:33.582Z,19.93
2018-09-01T01:16:11.567Z,18.90
2018-09-01T01:16:49.541Z,22.10
2018-09-01T01:17:27.449Z,17.13
2018-09-01T01:18:05.508Z,22.73
2018-09-01T01:18:43.464Z,15.17
2018-09-01T01:19:22.171Z,18.53
2018-09-01T01:20:00.183Z,20.37
2018-09-01T01:20:38.125Z,17.73
2018-09-01T01:21:16.129Z,27.23
2018-09-01T01:21:54.504Z,19.40
2018-09-01T01:22:32.481Z,17.97
2018-09-01T01:23:10.545Z,27.33
2018-09-01T01:23:48.522Z,14.50
2018-09-01T01:24:26.471Z,16.83
2018-09-01T01:25:04.568Z,24.67
2018-09-01T01:25:42.731Z,14.83
2018-09-01T01:26:20.793Z,25.23
2018-09-01T01:26:58.960Z,23.53
2018-09-01T01:27:37.000Z,19.17
2018-09-01T01:28:15.052Z,25.80
2018-09-01T01:28:53.137Z,35.80
2018-09-01T01:29:31.416Z,25.77
2018-09-01T01:30:09.580Z,32.60
2018-09-01T01:30:47.593Z,29.13
2018-09-01T01:31:25.512Z,22.10
2018-09-01T01:32:03.575Z,30.07
2018-09-01T01:32:41.454Z,21.43
2018-09-01T01:33:19.465Z,25.43
2018-09-01T01:33:57.732Z,23.87
2018-09-01T01:34:35.792Z,25.90
2018-09-01T01:35:13.769Z,15.37
2018-09-01T01:35:51.668Z,14.00
2018-09-01T01:36:29.728Z,20.10
2018-09-01T01:37:07.686Z,21.40
2018-09-01T01:37:45.826Z,18.80
2018-09-01T01:38:23.934Z,16.97
2018-09-01T01:39:01.899Z,17.27
2018-09-01T01:39:39.948Z,24.17
2018-09-01T01:40:19.060Z,16.00
2018-09-01T01:40:57.108Z,15.33
2018-09-01T01:41:35.123Z,18.63
2018-09-01T01:42:13.434Z,14.73
2018-09-01T01:42:51.758Z,19.53
2018-09-01T01:43:29.778Z,14.33
2018-09-01T01:44:07.828Z,18.00
2018-09-01T01:44:45.790Z,17.30
2018-09-01T01:45:23.889Z,16.10
2018-09-01T01:46:01.874Z,15.30
2018-09-01T01:46:39.836Z,16.93
2018-09-01T01:47:18.816Z,19.00
2018-09-01T01:47:56.838Z,16.97
2018-09-01T01:48:35.873Z,15.53
2018-09-01T01:49:13.946Z,12.93
2018-09-01T01:49:52.020Z,17.30
2018-09-01T01:50:29.943Z,17.03
2018-09-01T01:51:07.900Z,11.63
2018-09-01T01:51:46.031Z,12.17
2018-09-01T01:52:23.994Z,13.50
2018-09-01T01:53:01.946Z,23.27
2018-09-01T01:53:39.829Z,13.70
2018-09-01T01:54:17.860Z,13.43
2018-09-01T01:54:55.899Z,13.80
2018-09-01T01:55:33.989Z,15.83
2018-09-01T01:56:11.958Z,14.30
2018-09-01T01:56:49.962Z,20.50
2018-09-01T01:57:27.899Z,11.73
2018-09-01T01:58:05.828Z,23.70
2018-09-01T01:58:43.798Z,14.10
2018-09-01T01:59:21.903Z,14.10
2018-09-01T01:59:59.830Z,19.83
2018-09-01T02:00:37.864Z,14.43
2018-09-01T02:01:15.833Z,18.57
2018-09-01T02:01:53.834Z,17.77
2018-09-01T02:02:31.959Z,14.33
2018-09-01T02:03:10.155Z,20.53
2018-09-01T02:03:48.336Z,17.03
2018-09-01T02:04:26.444Z,12.10
2018-09-01T02:05:05.489Z,23.00
2018-09-01T02:05:43.468Z,25.53
2018-09-01T02:06:21.489Z,24.23
2018-09-01T02:06:59.501Z,15.80
2018-09-01T02:07:37.518Z,18.67
2018-09-01T02:08:15.507Z,17.50
2018-09-01T02:08:53.536Z,15.60
2018-09-01T02:09:31.620Z,22.83
2018-09-01T02:10:09.583Z,23.10
2018-09-01T02:10:47.808Z,18.50
2018-09-01T02:11:25.722Z,17.50
2018-09-01T02:12:03.760Z,22.20
2018-09-01T02:12:41.979Z,18.23
2018-09-01T02:13:20.103Z,14.57
2018-09-01T02:13:58.212Z,16.97
2018-09-01T02:14:36.215Z,16.60
2018-09-01T02:15:14.228Z,18.13
2018-09-01T02:15:52.168Z,19.27
2018-09-01T02:16:30.153Z,12.30
2018-09-01T02:17:08.660Z,23.97
2018-09-01T02:17:46.637Z,16.23
2018-09-01T02:18:24.725Z,16.53
2018-09-01T02:19:02.761Z,19.63
2018-09-01T02:19:40.725Z,14.40
2018-09-01T02:20:19.367Z,11.23
2018-09-01T02:20:57.412Z,18.13
2018-09-01T02:21:35.655Z,15.10
2018-09-01T02:22:13.782Z,14.17
2018-09-01T02:22:51.863Z,24.80
2018-09-01T02:23:29.899Z,10.43
2018-09-01T02:24:09.128Z,15.93
2018-09-01T02:24:47.198Z,19.67
2018-09-01T02:25:25.360Z,15.33
2018-09-01T02:26:03.306Z,11.47
2018-09-01T02:26:41.734Z,11.70
2018-09-01T02:27:19.788Z,20.50
2018-09-01T02:27:57.753Z,15.00
2018-09-01T02:28:35.923Z,19.53
2018-09-01T02:29:13.986Z,21.30
2018-09-01T02:29:51.945Z,28.83
2018-09-01T02:30:29.801Z,14.53
2018-09-01T02:31:08.081Z,18.47
2018-09-01T02:31:46.004Z,15.60
2018-09-01T02:32:23.952Z,13.13
2018-09-01T02:33:01.931Z,15.13
2018-09-01T02:33:39.889Z,26.23
2018-09-01T02:34:17.888Z,16.20
2018-09-01T02:34:56.077Z,19.53
2018-09-01T02:35:34.157Z,12.70
2018-09-01T02:36:13.328Z,15.10
2018-09-01T02:36:51.458Z,19.50
2018-09-01T02:37:29.410Z,23.87
2018-09-01T02:38:07.541Z,17.90
2018-09-01T02:38:45.742Z,14.27
2018-09-01T02:39:23.751Z,12.97
2018-09-01T02:40:01.638Z,15.67
2018-09-01T02:40:39.805Z,14.17
2018-09-01T02:41:17.821Z,14.33
2018-09-01T02:41:55.811Z,10.73
2018-09-01T02:42:33.797Z,17.33
2018-09-01T02:43:11.805Z,10.60
2018-09-01T02:43:50.391Z,16.60
2018-09-01T02:44:28.357Z,13.90
2018-09-01T02:45:06.357Z,19.97
2018-09-01T02:45:44.354Z,11.77
2018-09-01T02:46:22.356Z,20.77
2018-09-01T02:47:00.422Z,14.50
2018-09-01T02:47:38.446Z,19.97
2018-09-01T03:02:33.274Z,10.70
2018-09-01T03:03:11.441Z,16.47
2018-09-01T03:03:49.433Z,15.17
2018-09-01T03:04:27.571Z,12.80
2018-09-01T03:05:05.645Z,13.77
2018-09-01T03:05:43.543Z,15.80
2018-09-01T03:06:21.665Z,16.30
2018-09-01T03:07:01.675Z,13.90
2018-09-01T03:07:39.597Z,16.60
2018-09-01T03:08:17.681Z,18.50
2018-09-01T03:08:55.632Z,17.97
2018-09-01T03:09:33.609Z,11.60
2018-09-01T03:10:11.589Z,12.87
2018-09-01T03:10:49.605Z,10.93
2018-09-01T03:11:27.788Z,12.90
2018-09-01T03:12:05.691Z,10.80
2018-09-01T03:12:43.676Z,15.50
2018-09-01T03:13:21.816Z,16.60
2018-09-01T03:13:59.664Z,14.93
2018-09-01T03:14:37.552Z,11.23
2018-09-01T03:15:15.436Z,16.57
2018-09-01T03:15:53.470Z,15.13
2018-09-01T03:16:31.477Z,12.87
2018-09-01T03:17:10.357Z,17.00
2018-09-01T03:17:48.346Z,11.30
2018-09-01T03:18:26.393Z,13.13
2018-09-01T03:19:04.528Z,10.10
2018-09-01T03:19:42.475Z,10.90
2018-09-01T03:20:20.536Z,17.30
2018-09-01T03:20:58.501Z,15.33
2018-09-01T03:21:36.768Z,13.67
2018-09-01T03:22:14.780Z,13.43
2018-09-01T03:22:52.833Z,18.60
2018-09-01T03:23:30.902Z,19.47
2018-09-01T03:24:08.983Z,12.93
2018-09-01T03:24:46.907Z,11.37
2018-09-01T03:25:25.044Z,11.33
2018-09-01T03:26:03.236Z,14.73
2018-09-01T03:26:41.266Z,19.30
2018-09-01T03:27:19.236Z,17.50
2018-09-01T03:27:57.135Z,16.93
2018-09-01T03:28:35.062Z,12.80
2018-09-01T03:29:13.376Z,12.77
2018-09-01T03:29:51.517Z,11.33
2018-09-01T03:30:29.627Z,9.50
2018-09-01T03:31:07.653Z,15.33
2018-09-01T03:31:45.669Z,15.93
2018-09-01T03:32:23.791Z,12.53
2018-09-01T03:33:01.740Z,14.03
2018-09-01T03:33:41.525Z,15.30
2018-09-01T03:34:19.611Z,12.33
2018-09-01T03:34:57.630Z,13.43
2018-09-01T03:35:35.644Z,13.70
2018-09-01T03:36:13.684Z,10.70
2018-09-01T03:36:51.802Z,14.63
2018-09-01T03:37:29.759Z,11.63
2018-09-01T03:38:08.008Z,12.37
2018-09-01T03:38:46.064Z,21.13
2018-09-01T03:39:25.008Z,18.07
2018-09-01T03:40:03.074Z,14.53
2018-09-01T03:40:41.101Z,9.97
2018-09-01T03:41:19.256Z,14.97
2018-09-01T03:41:57.338Z,11.80
2018-09-01T03:42:35.663Z,10.43
2018-09-01T03:43:13.969Z,12.17
2018-09-01T03:43:52.218Z,17.60
2018-09-01T03:44:30.560Z,10.17
2018-09-01T03:45:09.160Z,17.70
2018-09-01T03:45:47.495Z,20.43
2018-09-01T03:46:26.950Z,11.67
2018-09-01T03:47:05.656Z,12.17
2018-09-01T03:47:43.906Z,9.30
2018-09-01T03:48:22.034Z,13.47
2018-09-01T03:49:01.918Z,12.47
2018-09-01T03:49:40.325Z,10.30
2018-09-01T03:50:18.404Z,9.53
2018-09-01T03:50:56.426Z,16.00
2018-09-01T03:51:34.363Z,16.73
2018-09-01T03:52:12.267Z,12.00
2018-09-01T03:52:51.092Z,14.10
2018-09-01T03:53:29.167Z,11.47
2018-09-01T03:54:08.360Z,11.63
2018-09-01T03:54:46.321Z,10.70
2018-09-01T03:55:24.276Z,9.57
2018-09-01T03:56:02.573Z,9.57
2018-09-01T03:56:40.687Z,14.70
2018-09-01T03:57:18.685Z,12.57
2018-09-01T03:57:56.774Z,8.33
2018-09-01T03:58:34.920Z,13.93
2018-09-01T03:59:12.997Z,9.23
2018-09-01T03:59:51.110Z,9.33
2018-09-01T04:00:29.580Z,9.43
2018-09-01T04:01:07.607Z,9.30
2018-09-01T04:01:45.683Z,10.47
2018-09-01T04:02:23.759Z,9.60
2018-09-01T04:03:01.965Z,12.90
2018-09-01T04:03:39.909Z,9.27
2018-09-01T04:04:18.106Z,9.30
2018-09-01T04:04:56.530Z,10.17
2018-09-01T04:05:34.584Z,21.80
2018-09-01T04:06:16.886Z,23.97
2018-09-01T04:06:54.850Z,9.57
2018-09-01T04:07:32.772Z,13.97
2018-09-01T04:08:10.894Z,11.30
2018-09-01T04:08:49.112Z,10.13
2018-09-01T04:09:26.994Z,8.10
2018-09-01T04:10:05.069Z,22.80
2018-09-01T04:10:42.976Z,12.07
2018-09-01T04:11:20.924Z,11.40
2018-09-01T04:11:58.833Z,9.87
2018-09-01T04:12:36.957Z,13.93
2018-09-01T04:13:14.954Z,10.80
2018-09-01T04:13:52.967Z,10.70
2018-09-01T04:14:31.014Z,12.80
2018-09-01T04:15:09.552Z,12.40
2018-09-01T04:15:47.535Z,9.17
2018-09-01T04:16:25.608Z,11.20
2018-09-01T04:17:03.571Z,9.43
2018-09-01T04:17:41.638Z,11.30
2018-09-01T04:18:19.825Z,18.67
2018-09-01T04:18:58.043Z,9.70
2018-09-01T04:19:36.067Z,12.50
2018-09-01T04:20:14.129Z,15.80
2018-09-01T04:20:52.035Z,13.00
2018-09-01T04:21:29.939Z,9.70
2018-09-01T04:22:07.815Z,11.43
2018-09-01T04:22:45.786Z,10.77
2018-09-01T04:23:23.941Z,16.10
2018-09-01T04:24:01.871Z,11.73
2018-09-01T04:24:40.591Z,12.90
2018-09-01T04:25:18.556Z,15.00
2018-09-01T04:25:56.646Z,12.30
2018-09-01T04:26:34.646Z,17.67
2018-09-01T04:27:12.720Z,10.17
2018-09-01T04:27:50.631Z,10.57
2018-09-01T04:28:28.705Z,11.70
2018-09-01T04:29:06.675Z,10.50
2018-09-01T04:29:44.713Z,15.37
2018-09-01T04:30:22.756Z,17.10
2018-09-01T04:31:00.788Z,12.50
2018-09-01T04:31:39.526Z,18.17
2018-09-01T04:32:17.513Z,13.10
2018-09-01T04:32:55.561Z,9.90
2018-09-01T04:33:33.618Z,17.60
2018-09-01T04:34:11.636Z,17.30
2018-09-01T04:34:49.667Z,10.83
2018-09-01T04:35:27.652Z,14.20
2018-09-01T04:36:05.672Z,12.70
2018-09-01T04:36:43.616Z,13.40
2018-09-01T04:37:21.672Z,17.60
2018-09-01T04:37:59.647Z,15.93
2018-09-01T04:38:37.591Z,12.90
2018-09-01T04:39:16.156Z,10.07
2018-09-01T04:39:55.500Z,10.33
2018-09-01T04:40:33.520Z,10.80
2018-09-01T04:41:11.482Z,10.37
2018-09-01T04:41:49.501Z,13.40
2018-09-01T04:42:27.414Z,15.30
2018-09-01T04:43:05.407Z,16.87
2018-09-01T04:43:43.383Z,11.77
2018-09-01T04:44:21.439Z,14.47
2018-09-01T04:44:59.364Z,13.03
2018-09-01T04:45:37.453Z,17.30
2018-09-01T04:46:15.520Z,13.33
2018-09-01T04:46:53.668Z,12.77
2018-09-01T04:47:32.289Z,18.23
2018-09-01T04:48:10.301Z,21.30
2018-09-01T04:48:48.317Z,12.20
2018-09-01T04:49:26.609Z,18.13
2018-09-01T04:50:04.846Z,16.80
2018-09-01T04:50:43.156Z,17.40
2018-09-01T04:51:21.188Z,17.40
2018-09-01T04:51:59.268Z,13.00
2018-09-01T04:52:37.168Z,14.20
2018-09-01T04:53:15.393Z,15.70
2018-09-01T04:53:53.372Z,14.23
2018-09-01T04:54:31.377Z,11.73
2018-09-01T04:55:09.427Z,17.03
2018-09-01T04:55:47.435Z,11.80
2018-09-01T04:56:25.777Z,11.10
2018-09-01T04:57:03.778Z,12.30
2018-09-01T04:57:41.955Z,10.17
2018-09-01T04:58:19.974Z,11.43
2018-09-01T04:58:58.083Z,21.50
2018-09-01T04:59:36.072Z,11.70
2018-09-01T05:01:13.161Z,12.10
2018-09-01T05:01:51.332Z,10.43
2018-09-01T05:02:29.451Z,10.37
2018-09-01T05:03:07.470Z,10.63
2018-09-01T05:03:45.484Z,23.53
2018-09-01T05:04:23.567Z,13.07
2018-09-01T05:05:01.671Z,10.17
2018-09-01T05:05:39.752Z,11.10
2018-09-01T05:06:17.805Z,11.23
2018-09-01T05:06:55.891Z,16.17
2018-09-01T05:07:33.859Z,11.10
2018-09-01T05:08:11.782Z,12.07
2018-09-01T05:08:49.979Z,10.63
2018-09-01T05:09:27.912Z,13.23
2018-09-01T05:10:06.164Z,15.57
2018-09-01T05:10:44.199Z,11.43
2018-09-01T05:11:22.185Z,13.37
2018-09-01T05:12:00.135Z,12.73
2018-09-01T05:12:38.155Z,11.20
2018-09-01T05:13:16.307Z,10.83
2018-09-01T05:13:54.322Z,13.37
2018-09-01T05:14:32.473Z,10.33
2018-09-01T05:15:10.538Z,11.90
2018-09-01T05:15:48.772Z,11.40
2018-09-01T05:16:26.881Z,10.50
2018-09-01T05:17:05.766Z,13.73
2018-09-01T05:17:43.789Z,11.00
2018-09-01T05:18:21.772Z,19.00
2018-09-01T05:19:00.170Z,15.20
2018-09-01T05:19:38.199Z,12.43
2018-09-01T05:20:16.903Z,12.05
2018-09-01T05:20:54.948Z,12.80
2018-09-01T05:21:32.926Z,10.37
2018-09-01T05:22:11.022Z,13.70
2018-09-01T05:22:48.959Z,13.43
2018-09-01T05:23:27.065Z,20.77
2018-09-01T05:24:05.130Z,11.43
2018-09-01T05:24:43.327Z,10.17
2018-09-01T05:25:21.437Z,12.80
2018-09-01T05:25:59.455Z,11.87
2018-09-01T05:26:37.502Z,10.40
2018-09-01T05:27:15.449Z,9.93
2018-09-01T05:27:53.684Z,15.70
2018-09-01T05:28:31.766Z,13.23
2018-09-01T05:29:09.764Z,11.63
2018-09-01T05:29:47.821Z,11.60
2018-09-01T05:30:25.773Z,12.97
2018-09-01T05:31:03.765Z,9.47
2018-09-01T05:31:41.761Z,12.70
2018-09-01T05:32:22.123Z,14.00
2018-09-01T05:33:00.492Z,12.73
2018-09-01T05:33:39.560Z,17.23
2018-09-01T05:34:17.640Z,15.00
2018-09-01T05:34:55.640Z,21.23
2018-09-01T05:35:33.676Z,15.20
2018-09-01T05:36:11.675Z,9.77
2018-09-01T05:36:49.852Z,17.53
2018-09-01T05:37:27.915Z,9.47
2018-09-01T05:38:06.087Z,10.30
2018-09-01T05:38:44.257Z,11.93
2018-09-01T05:39:22.295Z,13.60
2018-09-01T05:40:00.289Z,10.43
2018-09-01T05:40:38.211Z,10.20
2018-09-01T05:41:16.361Z,13.90
2018-09-01T05:41:54.309Z,11.10
2018-09-01T05:42:32.320Z,12.63
2018-09-01T05:43:10.327Z,17.83
2018-09-01T05:43:48.522Z,10.17
2018-09-01T05:44:26.672Z,10.00
2018-09-01T05:45:05.536Z,13.73
2018-09-01T05:45:43.518Z,12.63
2018-09-01T05:46:21.460Z,10.43
2018-09-01T05:46:59.599Z,19.70
2018-09-01T05:47:37.714Z,10.47
2018-09-01T05:48:15.797Z,9.33
2018-09-01T05:48:53.832Z,13.00
2018-09-01T05:49:31.963Z,15.67
2018-09-01T05:50:09.990Z,9.23
2018-09-01T05:50:48.098Z,9.67
2018-09-01T05:51:26.096Z,10.93
2018-09-01T05:52:04.202Z,12.23
2018-09-01T05:52:42.397Z,9.40
2018-09-01T05:53:20.474Z,10.10
2018-09-01T05:53:58.519Z,8.67
2018-09-01T05:54:36.391Z,20.67
2018-09-01T05:55:14.407Z,11.77
2018-09-01T05:55:52.368Z,9.07
2018-09-01T05:56:30.356Z,10.70
2018-09-01T05:57:08.521Z,11.37
2018-09-01T05:57:46.544Z,8.87
2018-09-01T05:58:24.584Z,9.07
2018-09-01T05:59:02.801Z,8.90
2018-09-01T05:59:40.798Z,18.87
2018-09-01T06:00:24.594Z,10.87
2018-09-01T06:01:02.992Z,9.23
2018-09-01T06:01:41.094Z,7.73
2018-09-01T06:02:19.202Z,13.20
2018-09-01T06:02:57.455Z,19.20
2018-09-01T06:03:35.632Z,14.80
2018-09-01T06:04:13.688Z,11.43
2018-09-01T06:04:54.451Z,9.90
2018-09-01T06:05:34.984Z,9.50
2018-09-01T06:06:13.365Z,7.50
2018-09-01T06:06:52.662Z,7.60
2018-09-01T06:07:32.572Z,11.10
2018-09-01T06:08:11.773Z,9.13
2018-09-01T06:08:49.880Z,7.13
2018-09-01T06:09:27.835Z,9.13
2018-09-01T06:10:05.827Z,8.73
2018-09-01T06:10:43.739Z,7.70
2018-09-01T06:11:21.986Z,6.70
2018-09-01T06:12:00.029Z,12.87
2018-09-01T06:12:38.198Z,6.67
2018-09-01T06:13:16.209Z,12.60
2018-09-01T06:13:54.306Z,9.30
2018-09-01T06:14:32.240Z,11.20
2018-09-01T06:15:10.552Z,8.17
2018-09-01T06:15:48.615Z,8.20
2018-09-01T06:16:27.573Z,8.37
2018-09-01T06:17:05.660Z,9.00
2018-09-01T06:17:43.719Z,10.03
2018-09-01T06:18:21.932Z,10.87
2018-09-01T06:19:00.041Z,12.93
2018-09-01T06:19:38.070Z,16.17
2018-09-01T06:20:17.240Z,14.00
2018-09-01T06:20:55.153Z,9.23
2018-09-01T06:21:33.123Z,8.87
2018-09-01T06:22:11.185Z,10.77
2018-09-01T06:22:49.083Z,14.23
2018-09-01T06:23:29.754Z,13.77
2018-09-01T06:24:07.918Z,13.23
2018-09-01T06:24:46.948Z,10.17
2018-09-01T06:25:24.852Z,17.63
2018-09-01T06:26:02.820Z,10.13
2018-09-01T06:26:40.761Z,11.37
2018-09-01T06:27:27.731Z,10.40
2018-09-01T06:28:12.310Z,9.53
2018-09-01T06:28:56.428Z,15.80
2018-09-01T06:29:34.541Z,8.70
2018-09-01T06:30:19.781Z,16.03
2018-09-01T06:30:58.584Z,11.23
2018-09-01T06:31:36.980Z,9.77
2018-09-01T06:32:15.293Z,14.33
2018-09-01T06:32:53.543Z,11.83
2018-09-01T06:33:31.875Z,12.27
2018-09-01T06:34:09.972Z,10.00
2018-09-01T06:34:47.998Z,9.43
2018-09-01T06:35:26.136Z,8.67
2018-09-01T06:36:04.301Z,10.20
2018-09-01T06:36:42.348Z,15.10
2018-09-01T06:37:20.395Z,8.57
2018-09-01T06:37:58.767Z,14.00
2018-09-01T06:38:36.724Z,13.50
2018-09-01T06:39:14.601Z,12.93
2018-09-01T06:39:52.600Z,24.30
2018-09-01T06:40:30.645Z,11.20
2018-09-01T06:41:09.076Z,11.50
2018-09-01T06:41:47.058Z,12.80
2018-09-01T06:42:26.143Z,11.53
2018-09-01T06:43:04.048Z,8.57
2018-09-01T06:43:42.066Z,9.37
2018-09-01T06:44:20.208Z,11.63
2018-09-01T06:44:58.294Z,16.90
2018-09-01T06:45:36.290Z,11.90
2018-09-01T06:46:14.269Z,13.10
2018-09-01T06:46:52.592Z,11.73
2018-09-01T06:47:30.767Z,8.97
2018-09-01T06:48:09.007Z,20.23
2018-09-01T06:48:47.046Z,9.40
2018-09-01T06:49:25.844Z,9.63
2018-09-01T06:50:03.829Z,14.03
2018-09-01T06:50:41.820Z,21.97
2018-09-01T06:51:19.987Z,11.20
2018-09-01T06:51:57.989Z,9.13
2018-09-01T06:52:36.072Z,10.87
2018-09-01T06:53:14.051Z,10.90
2018-09-01T06:53:52.014Z,10.87
2018-09-01T06:54:29.954Z,9.67
2018-09-01T06:55:09.199Z,9.93
2018-09-01T06:55:47.306Z,13.00
2018-09-01T06:56:25.271Z,13.63
2018-09-01T06:57:03.217Z,12.13
2018-09-01T06:57:41.244Z,10.10
2018-09-01T06:58:19.200Z,9.63
2018-09-01T06:58:57.321Z,10.07
2018-09-01T06:59:35.495Z,12.80
2018-09-01T07:00:13.797Z,12.70
2018-09-01T07:00:51.705Z,10.87
2018-09-01T07:01:29.712Z,9.07
2018-09-01T07:02:07.798Z,9.60
2018-09-01T07:02:45.787Z,9.37
2018-09-01T07:03:23.827Z,9.43
2018-09-01T07:04:01.852Z,16.30
2018-09-01T07:04:39.790Z,10.40
2018-09-01T07:05:17.818Z,10.13
2018-09-01T07:05:55.916Z,10.50
2018-09-01T07:06:33.926Z,13.73
2018-09-01T07:07:11.936Z,11.57
2018-09-01T07:07:50.091Z,10.53
2018-09-01T07:08:28.103Z,9.00
2018-09-01T07:09:07.375Z,10.47
2018-09-01T07:09:45.356Z,14.40
2018-09-01T07:10:23.725Z,9.67
2018-09-01T07:11:01.708Z,10.10
2018-09-01T07:11:39.941Z,13.20
2018-09-01T07:12:17.908Z,9.57
2018-09-01T07:12:56.281Z,9.63
2018-09-01T07:13:34.255Z,13.93
2018-09-01T07:14:12.410Z,8.97
2018-09-01T07:14:50.376Z,9.83
2018-09-01T07:15:29.489Z,9.97
2018-09-01T07:16:07.781Z,8.83
2018-09-01T07:16:45.721Z,12.17
2018-09-01T07:17:23.840Z,13.50
2018-09-01T07:18:01.897Z,16.70
2018-09-01T07:18:39.939Z,8.70
2018-09-01T07:19:17.909Z,8.47
2018-09-01T07:19:55.815Z,7.17
2018-09-01T07:20:33.909Z,11.63
2018-09-01T07:21:11.837Z,8.03
2018-09-01T07:21:49.857Z,8.87
2018-09-01T07:22:27.896Z,9.00
2018-09-01T07:23:05.864Z,10.23
2018-09-01T07:23:43.787Z,11.40
2018-09-01T07:24:23.043Z,13.57
2018-09-01T07:25:01.026Z,9.67
2018-09-01T07:25:39.070Z,8.00
2018-09-01T07:26:16.964Z,7.13
2018-09-01T07:26:54.900Z,11.03
2018-09-01T07:27:32.866Z,10.27
2018-09-01T07:28:11.096Z,7.17
2018-09-01T07:28:49.145Z,7.90
2018-09-01T07:29:27.147Z,7.40
2018-09-01T07:30:05.191Z,9.07
2018-09-01T07:30:43.428Z,7.17
2018-09-01T07:31:21.800Z,8.00
2018-09-01T07:31:59.803Z,9.07
2018-09-01T07:32:37.804Z,9.80
2018-09-01T07:33:15.857Z,22.40
2018-09-01T07:33:53.946Z,11.70
2018-09-01T07:34:31.952Z,9.13
2018-09-01T07:35:10.286Z,9.60
2018-09-01T07:35:48.329Z,8.43
2018-09-01T07:36:26.265Z,8.60
2018-09-01T07:37:04.430Z,17.33
2018-09-01T07:37:42.430Z,8.87
2018-09-01T07:38:20.565Z,10.50
2018-09-01T07:38:58.724Z,7.73
2018-09-01T07:39:36.688Z,12.17
2018-09-01T07:40:14.733Z,10.90
2018-09-01T07:40:52.815Z,11.10
2018-09-01T07:41:30.819Z,9.47
2018-09-01T07:42:08.977Z,13.40
2018-09-01T07:42:46.970Z,7.23
2018-09-01T07:43:24.927Z,7.80
2018-09-01T07:44:03.063Z,8.47
2018-09-01T07:44:41.035Z,11.30
2018-09-01T07:45:19.125Z,7.50
2018-09-01T07:45:57.108Z,8.10
2018-09-01T07:46:35.154Z,9.00
2018-09-01T07:47:13.319Z,10.00
2018-09-01T07:47:51.436Z,11.67
2018-09-01T07:48:29.372Z,12.70
2018-09-01T07:49:07.379Z,8.53
2018-09-01T07:49:45.399Z,9.10
2018-09-01T07:50:24.267Z,7.43
2018-09-01T07:51:02.275Z,11.03
2018-09-01T07:51:40.321Z,8.70
2018-09-01T07:52:18.266Z,11.80
2018-09-01T07:52:56.246Z,20.47
2018-09-01T07:53:34.630Z,13.43
2018-09-01T07:54:12.683Z,12.17
2018-09-01T07:54:50.724Z,8.97
2018-09-01T07:55:28.772Z,8.40
2018-09-01T07:56:07.001Z,9.90
2018-09-01T07:56:44.984Z,12.30
2018-09-01T07:57:23.157Z,8.03
2018-09-01T07:58:01.220Z,9.57
2018-09-01T07:58:39.328Z,9.60
2018-09-01T07:59:17.242Z,10.50
2018-09-01T07:59:55.265Z,8.77
2018-09-01T08:00:33.339Z,8.60
2018-09-01T08:01:11.241Z,11.63
2018-09-01T08:01:49.228Z,15.63
2018-09-01T08:02:27.367Z,10.40
2018-09-01T08:03:05.303Z,9.63
2018-09-01T08:03:44.385Z,10.87
2018-09-01T08:04:22.435Z,13.60
2018-09-01T08:05:00.484Z,15.73
2018-09-01T08:05:38.459Z,14.73
2018-09-01T08:06:16.648Z,7.47
2018-09-01T08:06:54.734Z,14.97
2018-09-01T08:07:32.746Z,8.73
2018-09-01T08:08:10.880Z,12.83
2018-09-01T08:08:49.037Z,14.30
2018-09-01T08:09:27.048Z,9.10
2018-09-01T08:10:05.140Z,7.10
2018-09-01T08:10:43.238Z,11.37
2018-09-01T08:11:21.144Z,7.63
2018-09-01T08:11:59.193Z,12.67
2018-09-01T08:12:37.139Z,12.40
2018-09-01T08:13:15.104Z,9.30
2018-09-01T08:13:53.172Z,9.00
2018-09-01T08:14:31.338Z,10.93
2018-09-01T08:15:09.997Z,10.80
2018-09-01T08:15:47.947Z,14.87
2018-09-01T08:16:25.985Z,12.57
2018-09-01T08:17:04.262Z,12.33
2018-09-01T08:17:42.273Z,9.27
2018-09-01T08:18:20.273Z,8.87
2018-09-01T08:18:58.236Z,10.53
2018-09-01T08:19:36.414Z,11.60
2018-09-01T08:20:14.697Z,10.40
2018-09-01T08:20:52.669Z,9.50
2018-09-01T08:21:30.684Z,10.57
2018-09-01T08:22:08.909Z,8.57
2018-09-01T08:22:46.973Z,8.97
2018-09-01T08:23:25.012Z,9.93
2018-09-01T08:24:03.075Z,13.30
2018-09-01T08:24:41.139Z,12.83
2018-09-01T08:25:19.288Z,17.17
2018-09-01T08:25:57.390Z,9.90
2018-09-01T08:26:35.592Z,9.00
2018-09-01T08:27:13.752Z,7.90
2018-09-01T08:27:51.878Z,11.23
2018-09-01T08:28:29.945Z,10.37
2018-09-01T08:29:08.069Z,13.73
2018-09-01T08:29:46.167Z,7.10
2018-09-01T08:30:24.382Z,11.00
2018-09-01T08:31:02.444Z,9.23
2018-09-01T08:31:40.617Z,11.60